Time;durP1;ratioP1;P1;durP2;ratioP2;P2;SDS_P1;SDS_P2;PMS_P1;PMS_P2;Temp;Humidity;BMP_temperature;BMP_pressure;BME280_temperature;BME280_humidity;BME280_pressure;Samples;Min_cycle;Max_cycle;Signal;HPM_P1;HPM_P2
2020/12/25 00:02:02;;;;;;;5.18;2.13;;;6.30;99.90;;;;;;5053578;28;20094;-85
2020/12/25 00:04:28;;;;;;;3.40;2.08;;;6.30;99.90;;;;;;5053326;28;20029;-85
2020/12/25 00:06:53;;;;;;;3.45;2.28;;;6.30;99.90;;;;;;5064850;28;20439;-85
2020/12/25 00:09:19;;;;;;;5.63;2.20;;;6.30;99.90;;;;;;5060127;28;20029;-85
2020/12/25 00:11:44;;;;;;;3.17;2.05;;;6.30;99.90;;;;;;5055470;28;20020;-85
2020/12/25 00:14:10;;;;;;;4.53;2.50;;;6.20;99.90;;;;;;5057816;28;20452;-85
2020/12/25 00:16:36;;;;;;;2.50;2.15;;;6.20;99.90;;;;;;5056966;28;20025;-85
2020/12/25 00:19:02;;;;;;;7.55;2.67;;;6.20;99.90;;;;;;5055257;28;20128;-85
2020/12/25 00:21:27;;;;;;;5.38;2.58;;;6.30;99.90;;;;;;5063451;28;20465;-86
2020/12/25 00:23:53;;;;;;;7.97;2.05;;;6.40;99.90;;;;;;5063745;28;20029;-85
2020/12/25 00:26:27;;;;;;;3.75;2.33;;;6.20;99.90;;;;;;5061274;28;20041;-85
2020/12/25 00:28:53;;;;;;;4.47;2.60;;;6.20;99.90;;;;;;5061871;28;20174;-85
2020/12/25 00:31:22;;;;;;;4.05;2.25;;;6.20;99.90;;;;;;5057303;28;20116;-86
2020/12/25 00:33:48;;;;;;;8.13;2.60;;;6.20;99.90;;;;;;5062745;28;20074;-84
2020/12/25 00:36:21;;;;;;;4.47;2.28;;;6.20;99.90;;;;;;5053173;28;20029;-84
2020/12/25 00:38:47;;;;;;;5.60;2.25;;;6.10;99.90;;;;;;5049312;28;20029;-85
2020/12/25 00:41:12;;;;;;;4.15;2.22;;;6.10;99.90;;;;;;5050785;28;20041;-85
2020/12/25 00:43:38;;;;;;;2.42;1.85;;;6.20;99.90;;;;;;5055265;28;20033;-85
2020/12/25 00:46:10;;;;;;;3.58;2.13;;;6.20;99.90;;;;;;5064954;28;20123;-84
2020/12/25 00:48:35;;;;;;;5.30;2.20;;;6.20;99.90;;;;;;5058326;28;20028;-85
2020/12/25 00:51:00;;;;;;;3.63;2.20;;;6.20;99.90;;;;;;5058141;28;20127;-84
2020/12/25 00:53:26;;;;;;;5.35;2.08;;;6.20;99.90;;;;;;5061511;28;20079;-84
2020/12/25 00:55:52;;;;;;;3.63;1.98;;;6.20;99.90;;;;;;5051664;28;20035;-85
2020/12/25 00:58:17;;;;;;;5.03;1.90;;;6.20;99.90;;;;;;5051769;28;20104;-84
2020/12/25 01:00:43;;;;;;;5.18;1.95;;;6.30;99.90;;;;;;5059412;28;20028;-84
2020/12/25 01:03:08;;;;;;;3.22;1.80;;;6.20;99.90;;;;;;5061434;28;20433;-84
2020/12/25 01:05:34;;;;;;;2.75;1.90;;;6.20;99.90;;;;;;5064367;28;20017;-84
2020/12/25 01:07:59;;;;;;;5.28;2.03;;;6.20;99.90;;;;;;5055005;28;20025;-84
2020/12/25 01:10:24;;;;;;;3.33;1.77;;;6.10;99.90;;;;;;5060092;28;20033;-84
2020/12/25 01:12:50;;;;;;;4.25;2.10;;;6.20;99.90;;;;;;5050823;28;20119;-84
2020/12/25 01:15:15;;;;;;;5.13;2.40;;;6.10;99.90;;;;;;5059952;28;20478;-85
2020/12/25 01:17:41;;;;;;;2.53;1.80;;;6.10;99.90;;;;;;5061378;28;20043;-84
2020/12/25 01:20:06;;;;;;;5.05;1.67;;;6.10;99.90;;;;;;5052768;28;20135;-85
2020/12/25 01:22:32;;;;;;;3.35;1.75;;;6.20;99.90;;;;;;5055758;28;20150;-85
2020/12/25 01:24:57;;;;;;;3.22;1.45;;;6.20;99.90;;;;;;5051095;28;20024;-85
2020/12/25 01:27:23;;;;;;;3.30;1.80;;;6.20;99.90;;;;;;5058583;28;20487;-85
2020/12/25 01:29:48;;;;;;;4.57;1.70;;;6.10;99.90;;;;;;5060898;28;20360;-85
2020/12/25 01:32:14;;;;;;;1.88;1.40;;;6.20;99.90;;;;;;5049085;28;20025;-84
2020/12/25 01:34:39;;;;;;;3.97;1.88;;;6.20;99.90;;;;;;5050729;28;20029;-85
2020/12/25 01:37:05;;;;;;;2.17;1.33;;;6.20;99.90;;;;;;5065825;28;20025;-85
2020/12/25 01:39:30;;;;;;;2.97;1.42;;;6.10;99.90;;;;;;5051760;28;20491;-85
2020/12/25 01:41:56;;;;;;;2.53;1.27;;;6.10;99.90;;;;;;5056784;28;20043;-84
2020/12/25 01:44:21;;;;;;;1.60;1.27;;;6.10;99.90;;;;;;5065975;28;20458;-84
2020/12/25 01:46:47;;;;;;;2.88;1.48;;;6.10;99.90;;;;;;5065147;28;20060;-85
2020/12/25 01:49:13;;;;;;;4.95;1.40;;;6.10;99.90;;;;;;5059685;28;20040;-85
2020/12/25 01:51:38;;;;;;;1.35;1.08;;;6.10;99.90;;;;;;5053033;28;20090;-84
2020/12/25 01:54:04;;;;;;;3.83;1.02;;;6.00;99.90;;;;;;5054765;28;20025;-84
2020/12/25 01:56:30;;;;;;;4.72;1.27;;;6.00;99.90;;;;;;5053534;28;20474;-85
2020/12/25 01:58:56;;;;;;;1.58;1.10;;;6.10;99.90;;;;;;5055571;28;20530;-85
2020/12/25 02:01:21;;;;;;;2.80;1.23;;;6.10;99.90;;;;;;5066787;28;20021;-84
2020/12/25 02:03:47;;;;;;;2.00;1.25;;;6.00;99.90;;;;;;5062832;28;20028;-86
2020/12/25 02:06:13;;;;;;;2.33;1.00;;;5.90;99.90;;;;;;5064005;28;20032;-84
2020/12/25 02:08:38;;;;;;;0.88;0.80;;;5.90;99.90;;;;;;5047727;28;20060;-84
2020/12/25 02:11:04;;;;;;;1.58;0.98;;;5.90;99.90;;;;;;5061142;28;20020;-83
2020/12/25 02:13:31;;;;;;;2.35;0.90;;;5.90;99.90;;;;;;5055202;28;20049;-85
2020/12/25 02:15:56;;;;;;;1.25;0.82;;;5.80;99.90;;;;;;5058804;28;20040;-84
2020/12/25 02:18:22;;;;;;;2.10;0.80;;;5.90;99.90;;;;;;5049230;28;20028;-84
2020/12/25 02:20:47;;;;;;;1.63;0.80;;;5.80;99.90;;;;;;5063424;28;20044;-84
2020/12/25 02:23:13;;;;;;;0.68;0.63;;;5.80;99.90;;;;;;5057869;28;20112;-84
2020/12/25 02:25:38;;;;;;;1.77;0.80;;;5.90;99.90;;;;;;5053975;28;20051;-84
2020/12/25 02:28:04;;;;;;;1.80;0.73;;;5.90;99.90;;;;;;5060406;28;20025;-84
2020/12/25 02:30:29;;;;;;;0.50;0.50;;;5.80;99.90;;;;;;5054432;28;20039;-84
2020/12/25 02:32:55;;;;;;;1.80;0.80;;;5.80;99.90;;;;;;5060828;28;20046;-85
2020/12/25 02:35:20;;;;;;;1.50;0.60;;;5.80;99.90;;;;;;5062115;28;20021;-84
2020/12/25 02:37:46;;;;;;;0.80;0.70;;;5.80;99.90;;;;;;5061154;28;20032;-85
2020/12/25 02:40:12;;;;;;;2.60;0.60;;;5.70;99.90;;;;;;5051586;28;20108;-84
2020/12/25 02:42:37;;;;;;;0.77;0.68;;;5.60;99.90;;;;;;5061368;28;20033;-85
2020/12/25 02:45:04;;;;;;;2.22;0.80;;;5.50;99.90;;;;;;5064024;28;20039;-84
2020/12/25 02:47:30;;;;;;;0.60;0.57;;;5.50;99.90;;;;;;5066460;28;20399;-85
2020/12/25 02:49:55;;;;;;;0.47;0.47;;;5.50;99.90;;;;;;5052908;28;20025;-84
2020/12/25 02:52:21;;;;;;;0.68;0.57;;;5.50;99.90;;;;;;5060795;28;20628;-85
2020/12/25 02:54:46;;;;;;;2.08;0.57;;;5.50;99.90;;;;;;5056187;28;20021;-84
2020/12/25 02:57:12;;;;;;;1.25;0.68;;;5.50;99.90;;;;;;5062645;28;20091;-84
2020/12/25 02:59:37;;;;;;;1.60;0.47;;;5.40;99.90;;;;;;5059666;28;20036;-83
2020/12/25 03:02:03;;;;;;;1.27;0.40;;;5.40;99.90;;;;;;5057429;28;20394;-84
2020/12/25 03:04:28;;;;;;;1.75;0.52;;;5.40;99.90;;;;;;5057190;28;20029;-85
2020/12/25 03:06:53;;;;;;;0.80;0.60;;;5.40;99.90;;;;;;5056498;28;20025;-85
2020/12/25 03:09:19;;;;;;;0.52;0.52;;;5.40;99.90;;;;;;5060722;28;20032;-84
2020/12/25 03:11:44;;;;;;;1.17;0.60;;;5.30;99.90;;;;;;5057220;28;20020;-85
2020/12/25 03:14:10;;;;;;;1.55;0.57;;;5.40;99.90;;;;;;5067014;28;20091;-84
2020/12/25 03:16:35;;;;;;;0.95;0.50;;;5.40;99.90;;;;;;5057065;28;20017;-85
2020/12/25 03:19:01;;;;;;;2.60;0.60;;;5.50;99.90;;;;;;5055442;28;20045;-85
2020/12/25 03:21:26;;;;;;;0.93;0.40;;;5.40;99.90;;;;;;5059520;28;20161;-84
2020/12/25 03:23:52;;;;;;;1.58;0.70;;;5.50;99.90;;;;;;5067797;28;20031;-85
2020/12/25 03:26:18;;;;;;;0.98;0.63;;;5.50;99.90;;;;;;5060496;28;20116;-84
2020/12/25 03:28:43;;;;;;;0.98;0.77;;;5.50;99.90;;;;;;5060177;28;20146;-84
2020/12/25 03:31:09;;;;;;;1.80;0.60;;;5.40;99.90;;;;;;5059678;28;20403;-84
2020/12/25 03:33:34;;;;;;;0.88;0.70;;;5.40;99.90;;;;;;5055528;28;20024;-85
2020/12/25 03:36:00;;;;;;;1.25;0.52;;;5.30;99.90;;;;;;5055792;28;20025;-84
2020/12/25 03:38:25;;;;;;;0.73;0.57;;;5.40;99.90;;;;;;5061830;28;20029;-85
2020/12/25 03:40:51;;;;;;;0.85;0.60;;;5.40;99.90;;;;;;5054044;28;20052;-85
2020/12/25 03:43:17;;;;;;;0.93;0.55;;;5.40;99.90;;;;;;5059466;28;20086;-85
2020/12/25 03:45:42;;;;;;;0.75;0.50;;;5.30;99.90;;;;;;5053985;28;20028;-84
2020/12/25 03:48:08;;;;;;;0.68;0.40;;;5.40;99.90;;;;;;5051802;28;20027;-84
2020/12/25 03:50:33;;;;;;;0.77;0.50;;;5.40;99.90;;;;;;5052716;28;20417;-85
2020/12/25 03:52:59;;;;;;;2.72;0.80;;;5.40;99.90;;;;;;5062958;28;20025;-84
2020/12/25 03:55:24;;;;;;;1.75;0.70;;;5.40;99.90;;;;;;5066233;28;20028;-84
2020/12/25 03:57:50;;;;;;;1.38;0.73;;;5.40;99.90;;;;;;5052345;28;20390;-84
2020/12/25 04:00:15;;;;;;;2.33;0.50;;;5.30;99.90;;;;;;5057855;28;20037;-84
2020/12/25 04:02:41;;;;;;;2.05;0.70;;;5.40;99.90;;;;;;5054656;28;20028;-84
2020/12/25 04:05:06;;;;;;;1.13;0.60;;;5.40;99.90;;;;;;5059466;28;20025;-84
2020/12/25 04:07:32;;;;;;;0.85;0.55;;;5.50;99.90;;;;;;5060313;28;20502;-84
2020/12/25 04:09:57;;;;;;;1.52;0.63;;;5.40;99.90;;;;;;5059604;28;20116;-84
2020/12/25 04:12:23;;;;;;;1.42;0.70;;;5.40;99.90;;;;;;5064765;28;20044;-84
2020/12/25 04:14:49;;;;;;;0.82;0.70;;;5.50;99.90;;;;;;5058247;28;20017;-83
2020/12/25 04:17:14;;;;;;;2.03;0.77;;;5.50;99.90;;;;;;5053516;28;20063;-84
2020/12/25 04:19:40;;;;;;;1.75;0.70;;;5.60;99.90;;;;;;5065397;28;20036;-84
2020/12/25 04:22:05;;;;;;;1.08;0.60;;;5.50;99.90;;;;;;5063411;28;20146;-84
2020/12/25 04:24:31;;;;;;;0.95;0.60;;;5.40;99.90;;;;;;5060046;28;20394;-84
2020/12/25 04:26:56;;;;;;;1.17;0.60;;;5.50;99.90;;;;;;5052907;28;20021;-84
2020/12/25 04:29:31;;;;;;;1.40;0.70;;;5.50;99.90;;;;;;5051012;28;20049;-84
2020/12/25 04:31:56;;;;;;;4.53;0.90;;;5.50;99.90;;;;;;5058744;28;20111;-83
2020/12/25 04:34:22;;;;;;;1.10;0.60;;;5.50;99.90;;;;;;5062039;28;20020;-84
2020/12/25 04:36:47;;;;;;;2.70;0.80;;;5.50;99.90;;;;;;5059828;28;20025;-83
2020/12/25 04:39:13;;;;;;;1.98;0.60;;;5.50;99.90;;;;;;5063145;28;20082;-83
2020/12/25 04:41:38;;;;;;;1.98;0.82;;;5.50;99.90;;;;;;5057255;28;20552;-84
2020/12/25 04:44:06;;;;;;;1.17;0.80;;;5.50;99.90;;;;;;5052173;28;20095;-84
2020/12/25 04:46:32;;;;;;;2.03;0.85;;;5.50;99.90;;;;;;5059828;28;20498;-83
2020/12/25 04:48:57;;;;;;;3.50;0.70;;;5.50;99.90;;;;;;5054912;28;20487;-83
2020/12/25 04:51:23;;;;;;;0.80;0.80;;;5.50;99.90;;;;;;5062452;28;20028;-83
2020/12/25 04:53:54;;;;;;;1.10;0.80;;;5.40;99.90;;;;;;5049908;28;20387;-83
2020/12/25 04:56:20;;;;;;;1.07;0.70;;;5.40;99.90;;;;;;5053647;28;20036;-83
2020/12/25 04:58:47;;;;;;;0.68;0.68;;;5.40;99.90;;;;;;5053147;28;20092;-82
2020/12/25 05:01:13;;;;;;;1.50;0.73;;;5.40;99.90;;;;;;5066534;28;20056;-83
2020/12/25 05:03:43;;;;;;;3.13;0.75;;;5.40;99.90;;;;;;5059520;28;20029;-83
2020/12/25 05:06:10;;;;;;;1.88;0.80;;;5.40;99.90;;;;;;5057902;28;20036;-83
2020/12/25 05:08:36;;;;;;;1.10;0.80;;;5.40;99.90;;;;;;5057533;28;20033;-83
2020/12/25 05:11:03;;;;;;;0.82;0.70;;;5.40;99.90;;;;;;5055642;28;20024;-84
2020/12/25 05:13:29;;;;;;;1.38;0.50;;;5.40;99.90;;;;;;5057415;28;20070;-84
2020/12/25 05:15:54;;;;;;;2.60;0.70;;;5.40;99.90;;;;;;5057711;28;20090;-84
2020/12/25 05:18:22;;;;;;;0.57;0.57;;;5.40;99.90;;;;;;5056015;28;20052;-85
2020/12/25 05:20:51;;;;;;;1.60;0.45;;;5.40;99.90;;;;;;5049202;28;20036;-84
2020/12/25 05:23:16;;;;;;;1.40;0.68;;;5.30;99.90;;;;;;5050345;28;20507;-84
2020/12/25 05:25:42;;;;;;;2.20;0.65;;;5.40;99.90;;;;;;5060035;28;20131;-85
2020/12/25 05:28:12;;;;;;;0.30;0.30;;;5.40;99.90;;;;;;5053790;28;20033;-85
2020/12/25 05:30:37;;;;;;;0.40;0.40;;;5.30;99.90;;;;;;5068263;28;20024;-84
2020/12/25 05:33:03;;;;;;;5.10;0.82;;;5.40;99.90;;;;;;5053487;28;20479;-84
2020/12/25 05:35:29;;;;;;;1.05;0.50;;;5.30;99.90;;;;;;5051287;28;20044;-84
2020/12/25 05:37:55;;;;;;;0.40;0.40;;;5.40;99.90;;;;;;5057190;28;20025;-84
2020/12/25 05:40:20;;;;;;;0.52;0.52;;;5.40;99.90;;;;;;5052144;28;20033;-84
2020/12/25 05:42:47;;;;;;;0.55;0.43;;;5.30;99.90;;;;;;5055337;28;20048;-84
2020/12/25 05:45:17;;;;;;;3.45;0.70;;;5.40;99.90;;;;;;5062971;28;20509;-84
2020/12/25 05:47:44;;;;;;;1.85;0.50;;;5.30;99.90;;;;;;5050498;28;20040;-84
2020/12/25 05:50:10;;;;;;;1.05;0.30;;;5.30;99.90;;;;;;5055724;28;20071;-82
2020/12/25 05:52:37;;;;;;;0.40;0.40;;;5.30;99.90;;;;;;5050629;28;20021;-84
2020/12/25 05:55:02;;;;;;;1.10;0.45;;;5.30;99.90;;;;;;5066727;28;20095;-84
2020/12/25 05:57:33;;;;;;;1.55;0.70;;;5.30;99.90;;;;;;5058023;28;20499;-84
2020/12/25 06:00:03;;;;;;;0.40;0.40;;;5.30;99.90;;;;;;5049144;28;20083;-83
2020/12/25 06:02:33;;;;;;;0.70;0.70;;;5.30;99.90;;;;;;5064426;28;20029;-84
2020/12/25 06:05:00;;;;;;;0.82;0.68;;;5.30;99.90;;;;;;5050182;28;20104;-83
2020/12/25 06:07:28;;;;;;;2.03;0.70;;;5.20;99.90;;;;;;5049907;28;20091;-84
2020/12/25 06:09:58;;;;;;;0.50;0.50;;;5.20;99.90;;;;;;5049608;28;20025;-84
2020/12/25 06:12:38;;;;;;;1.05;0.75;;;5.20;99.90;;;;;;5062432;28;20399;-83
2020/12/25 06:15:05;;;;;;;2.65;0.80;;;5.10;99.90;;;;;;5058097;28;20029;-84
2020/12/25 06:17:34;;;;;;;1.70;0.98;;;5.10;99.90;;;;;;5061666;28;20078;-77
2020/12/25 06:20:03;;;;;;;2.58;0.90;;;5.20;99.90;;;;;;5057449;28;20045;-77
2020/12/25 06:22:32;;;;;;;5.90;1.00;;;5.20;99.90;;;;;;5051781;28;20020;-76
2020/12/25 06:24:59;;;;;;;2.30;1.00;;;5.30;99.90;;;;;;5048154;28;20423;-77
2020/12/25 06:27:26;;;;;;;3.58;0.80;;;5.20;99.90;;;;;;5055870;28;20020;-76
2020/12/25 06:29:54;;;;;;;1.08;0.80;;;5.20;99.90;;;;;;5067085;28;20025;-76
2020/12/25 06:32:22;;;;;;;4.38;0.90;;;5.20;99.90;;;;;;5059543;28;20074;-79
2020/12/25 06:34:50;;;;;;;1.60;0.70;;;5.20;99.90;;;;;;5053925;28;20029;-76
2020/12/25 06:37:17;;;;;;;3.42;0.73;;;5.20;99.90;;;;;;5066235;28;20043;-76
2020/12/25 06:39:51;;;;;;;1.88;0.80;;;5.20;99.90;;;;;;5058537;28;20032;-76
2020/12/25 06:42:24;;;;;;;3.97;0.98;;;5.20;99.90;;;;;;5066184;28;20037;-76
2020/12/25 06:44:50;;;;;;;2.97;1.20;;;5.10;99.90;;;;;;5052694;28;20035;-76
2020/12/25 06:47:48;;;;;;;1.45;1.00;;;5.20;99.90;;;;;;5052372;28;20120;-76
2020/12/25 06:50:15;;;;;;;2.65;0.95;;;5.20;99.90;;;;;;5045771;28;20033;-76
2020/12/25 06:52:52;;;;;;;2.70;1.08;;;5.10;99.90;;;;;;5067548;28;21658;-77
2020/12/25 06:55:20;;;;;;;0.85;0.60;;;5.20;99.90;;;;;;5069740;28;20025;-77
2020/12/25 06:57:46;;;;;;;1.55;0.93;;;5.20;99.90;;;;;;5070910;28;20063;-77
2020/12/25 07:00:12;;;;;;;3.25;1.10;;;5.20;99.90;;;;;;5060822;28;20479;-77
2020/12/25 07:02:40;;;;;;;4.18;0.85;;;5.10;99.90;;;;;;5058726;28;20028;-77
2020/12/25 07:05:07;;;;;;;2.08;0.82;;;5.20;99.90;;;;;;5061465;28;20028;-76
2020/12/25 07:07:33;;;;;;;0.80;0.80;;;5.20;99.90;;;;;;5068558;28;20020;-76
2020/12/25 07:10:08;;;;;;;1.73;0.90;;;5.20;99.90;;;;;;5059228;28;20035;-77
2020/12/25 07:12:34;;;;;;;0.90;0.80;;;5.10;99.90;;;;;;5061031;28;20079;-76
2020/12/25 07:14:59;;;;;;;1.88;0.88;;;5.00;99.90;;;;;;5051962;28;20037;-76
2020/12/25 07:17:25;;;;;;;2.17;0.90;;;5.00;99.90;;;;;;5053209;28;20048;-77
2020/12/25 07:19:51;;;;;;;2.17;0.75;;;5.00;99.90;;;;;;5064553;28;20124;-82
2020/12/25 07:22:19;;;;;;;2.10;0.63;;;5.00;99.90;;;;;;5065460;28;20450;-75
2020/12/25 07:24:44;;;;;;;1.08;0.70;;;5.00;99.90;;;;;;5067742;28;20033;-75
2020/12/25 07:27:11;;;;;;;2.40;0.77;;;5.00;99.90;;;;;;5064997;28;20033;-76
2020/12/25 07:29:37;;;;;;;0.90;0.70;;;5.00;99.90;;;;;;5061208;28;20289;-76
2020/12/25 07:32:03;;;;;;;0.60;0.60;;;5.00;99.90;;;;;;5047663;28;20595;-76
2020/12/25 07:34:29;;;;;;;1.05;0.77;;;5.00;99.90;;;;;;5055406;28;20025;-77
2020/12/25 07:36:56;;;;;;;1.98;0.70;;;5.00;99.90;;;;;;5054155;28;20344;-76
2020/12/25 07:39:27;;;;;;;2.03;0.60;;;5.00;99.90;;;;;;5061408;28;20028;-75
2020/12/25 07:41:52;;;;;;;1.75;0.75;;;5.00;99.90;;;;;;5068138;28;20029;-75
2020/12/25 07:44:19;;;;;;;0.60;0.60;;;5.00;99.90;;;;;;5066249;28;20036;-76
2020/12/25 07:46:45;;;;;;;1.73;0.70;;;5.10;99.90;;;;;;5057318;28;20036;-76
2020/12/25 07:49:11;;;;;;;3.10;0.70;;;5.10;99.90;;;;;;5056907;28;20422;-76
2020/12/25 07:51:36;;;;;;;4.80;0.80;;;5.10;99.90;;;;;;5052765;28;20501;-76
2020/12/25 07:54:04;;;;;;;2.63;0.60;;;5.10;99.90;;;;;;5064320;28;20103;-77
2020/12/25 07:56:32;;;;;;;1.35;0.80;;;5.10;99.90;;;;;;5053967;28;20078;-75
2020/12/25 07:58:58;;;;;;;2.30;0.77;;;5.10;99.90;;;;;;5051908;28;20052;-78
2020/12/25 08:01:25;;;;;;;1.35;0.70;;;5.10;99.90;;;;;;5052921;28;20028;-77
2020/12/25 08:03:51;;;;;;;1.58;1.00;;;5.20;99.90;;;;;;5058219;28;20036;-75
2020/12/25 08:06:22;;;;;;;0.85;0.80;;;5.10;99.90;;;;;;5062680;28;20487;-77
2020/12/25 08:08:53;;;;;;;1.73;0.90;;;5.20;99.90;;;;;;5050853;28;20035;-78
2020/12/25 08:11:19;;;;;;;1.30;0.80;;;5.10;99.90;;;;;;5060828;28;20033;-75
2020/12/25 08:13:47;;;;;;;2.90;0.85;;;5.20;99.90;;;;;;5060209;28;20035;-77
2020/12/25 08:16:13;;;;;;;2.08;0.90;;;5.20;99.90;;;;;;5065915;28;20115;-75
2020/12/25 08:18:39;;;;;;;1.23;0.95;;;5.20;99.90;;;;;;5056293;28;20133;-76
2020/12/25 08:21:05;;;;;;;2.05;0.95;;;5.20;99.90;;;;;;5059395;28;20029;-75
2020/12/25 08:23:34;;;;;;;1.52;0.80;;;5.20;99.90;;;;;;5052226;28;20378;-74
2020/12/25 08:26:01;;;;;;;1.48;0.80;;;5.20;99.90;;;;;;5049992;28;20028;-77
2020/12/25 08:28:30;;;;;;;2.28;0.82;;;5.20;99.90;;;;;;5053441;28;20033;-76
2020/12/25 08:30:55;;;;;;;3.88;0.80;;;5.20;99.90;;;;;;5060627;28;20524;-76
2020/12/25 08:33:26;;;;;;;1.52;0.77;;;5.20;99.90;;;;;;5053538;28;20029;-75
2020/12/25 08:35:52;;;;;;;1.10;0.75;;;5.20;99.90;;;;;;5053756;28;20047;-75
2020/12/25 08:38:18;;;;;;;1.98;0.80;;;5.30;99.90;;;;;;5057047;28;20483;-76
2020/12/25 08:40:46;;;;;;;3.90;1.10;;;5.30;99.90;;;;;;5069128;28;20039;-78
2020/12/25 08:43:17;;;;;;;0.77;0.75;;;5.40;99.90;;;;;;5053845;28;20025;-76
2020/12/25 08:45:58;;;;;;;1.58;0.90;;;5.30;99.90;;;;;;5049973;28;20040;-75
2020/12/25 08:48:24;;;;;;;0.90;0.70;;;5.30;99.90;;;;;;5061641;28;20039;-72
2020/12/25 08:50:49;;;;;;;1.17;0.88;;;5.40;99.90;;;;;;5052689;28;20032;-76
2020/12/25 08:53:19;;;;;;;2.33;0.80;;;5.40;99.90;;;;;;5057335;28;20051;-76
2020/12/25 08:55:50;;;;;;;1.05;0.90;;;5.30;99.90;;;;;;5065720;28;20021;-75
2020/12/25 08:58:20;;;;;;;0.90;0.60;;;5.40;99.90;;;;;;5054435;28;20040;-75
2020/12/25 09:01:03;;;;;;;3.22;1.40;;;5.30;99.90;;;;;;5049381;28;20028;-74
2020/12/25 09:03:40;;;;;;;2.92;1.40;;;5.30;99.90;;;;;;5049347;28;20035;-75
2020/12/25 09:06:06;;;;;;;2.40;0.85;;;5.40;99.90;;;;;;5051988;28;20028;-80
2020/12/25 09:08:32;;;;;;;2.95;1.27;;;5.50;99.90;;;;;;5051273;28;20495;-75
2020/12/25 09:10:58;;;;;;;2.17;1.05;;;5.40;99.90;;;;;;5062925;28;20067;-75
2020/12/25 09:13:24;;;;;;;2.95;0.90;;;5.40;99.90;;;;;;5061271;28;20048;-74
2020/12/25 09:15:49;;;;;;;2.75;0.98;;;5.40;99.90;;;;;;5052606;28;20040;-77
2020/12/25 09:18:15;;;;;;;2.13;0.80;;;5.50;99.90;;;;;;5048749;28;20032;-77
2020/12/25 09:20:40;;;;;;;1.60;0.80;;;5.60;99.90;;;;;;5050864;28;20033;-76
2020/12/25 09:23:06;;;;;;;1.60;0.82;;;5.70;99.90;;;;;;5053301;28;20028;-78
2020/12/25 09:25:31;;;;;;;6.63;0.88;;;5.60;99.90;;;;;;5050292;28;20170;-76
2020/12/25 09:27:57;;;;;;;0.75;0.75;;;5.60;99.90;;;;;;5053514;28;20053;-78
2020/12/25 09:30:22;;;;;;;1.58;0.80;;;5.60;99.90;;;;;;5049188;28;20082;-75
2020/12/25 09:32:48;;;;;;;1.45;0.90;;;5.60;99.90;;;;;;5059066;28;20130;-83
2020/12/25 09:35:13;;;;;;;2.88;1.05;;;5.70;99.90;;;;;;5068226;28;20024;-80
2020/12/25 09:37:39;;;;;;;1.83;0.70;;;5.80;99.90;;;;;;5061049;28;20029;-75
2020/12/25 09:40:04;;;;;;;0.98;0.63;;;5.80;99.90;;;;;;5049391;28;20343;-77
2020/12/25 09:42:30;;;;;;;2.17;0.90;;;5.80;99.90;;;;;;5057195;28;20085;-84
2020/12/25 09:44:55;;;;;;;2.42;0.95;;;5.80;99.90;;;;;;5057410;28;20113;-78
2020/12/25 09:47:21;;;;;;;2.28;1.10;;;5.80;99.90;;;;;;5049490;28;20380;-79
2020/12/25 09:49:46;;;;;;;2.03;1.08;;;5.80;99.90;;;;;;5067576;28;20021;-82
2020/12/25 09:52:12;;;;;;;2.63;0.80;;;5.70;99.90;;;;;;5059322;28;20032;-79
2020/12/25 09:54:37;;;;;;;1.60;0.90;;;5.80;99.90;;;;;;5053808;28;20024;-81
2020/12/25 09:57:04;;;;;;;4.60;0.85;;;5.90;99.90;;;;;;5049266;28;20028;-74
2020/12/25 09:59:29;;;;;;;2.05;0.93;;;5.90;99.90;;;;;;5052981;28;20434;-77
2020/12/25 10:01:55;;;;;;;2.65;0.85;;;6.00;99.90;;;;;;5049190;28;20040;-77
2020/12/25 10:04:20;;;;;;;3.17;0.95;;;6.00;99.90;;;;;;5053541;28;20750;-83
2020/12/25 10:06:46;;;;;;;1.15;0.85;;;6.10;99.90;;;;;;5054487;28;20032;-83
2020/12/25 10:09:11;;;;;;;1.52;1.10;;;6.00;99.90;;;;;;5050715;28;20029;-89
2020/12/25 10:11:37;;;;;;;0.80;0.80;;;6.00;99.90;;;;;;5055850;28;20027;-83
2020/12/25 10:14:03;;;;;;;1.20;0.90;;;5.90;99.90;;;;;;5050078;28;20795;-86
2020/12/25 10:16:28;;;;;;;3.08;1.25;;;5.90;99.90;;;;;;5055918;28;20021;-79
2020/12/25 10:18:53;;;;;;;4.10;1.00;;;6.00;99.90;;;;;;5048519;28;20501;-78
2020/12/25 10:21:19;;;;;;;1.13;0.93;;;5.90;99.90;;;;;;5056642;28;20063;-79
2020/12/25 10:23:44;;;;;;;2.25;0.98;;;5.90;99.90;;;;;;5053526;28;20024;-86
2020/12/25 10:26:11;;;;;;;4.22;1.10;;;5.90;99.90;;;;;;5052167;28;20444;-79
2020/12/25 10:28:40;;;;;;;2.78;0.95;;;5.90;99.90;;;;;;5048581;28;20373;-83
2020/12/25 10:31:05;;;;;;;2.45;0.93;;;6.00;99.90;;;;;;5051064;28;20100;-82
2020/12/25 10:33:31;;;;;;;1.83;0.98;;;6.00;99.90;;;;;;5056592;28;20154;-80
2020/12/25 10:36:00;;;;;;;1.50;0.80;;;5.80;99.90;;;;;;5061346;28;20025;-79
2020/12/25 10:38:25;;;;;;;2.50;0.98;;;5.80;99.90;;;;;;5048845;28;20040;-83
2020/12/25 10:40:51;;;;;;;2.33;0.73;;;5.80;99.90;;;;;;5049802;28;20387;-77
2020/12/25 10:43:16;;;;;;;3.08;1.05;;;5.80;99.90;;;;;;5050123;28;20079;-79
2020/12/25 10:45:42;;;;;;;2.65;0.90;;;5.80;99.90;;;;;;5054828;28;20095;-79
2020/12/25 10:48:08;;;;;;;1.77;0.93;;;5.80;99.90;;;;;;5054523;28;20029;-77
2020/12/25 10:50:34;;;;;;;1.48;1.05;;;5.90;99.90;;;;;;5053421;28;20025;-80
2020/12/25 10:53:40;;;;;;;1.05;0.85;;;5.90;99.90;;;;;;5057821;28;20364;-77
2020/12/25 10:56:05;;;;;;;2.15;0.85;;;5.90;99.90;;;;;;5064731;28;20499;-78
2020/12/25 10:58:30;;;;;;;2.15;1.00;;;5.90;99.90;;;;;;5058680;28;20036;-77
2020/12/25 11:00:56;;;;;;;1.00;0.75;;;5.90;99.90;;;;;;5051203;28;20546;-76
2020/12/25 11:03:21;;;;;;;1.88;1.10;;;5.80;99.90;;;;;;5055417;28;20024;-73
2020/12/25 11:05:48;;;;;;;1.40;0.80;;;5.80;99.90;;;;;;5057867;28;20082;-82
2020/12/25 11:08:13;;;;;;;4.57;1.35;;;5.80;99.90;;;;;;5055452;28;20051;-86
2020/12/25 11:10:43;;;;;;;2.20;0.90;;;5.80;99.90;;;;;;5058088;28;20029;-81
2020/12/25 11:13:08;;;;;;;6.72;1.15;;;5.70;99.90;;;;;;5057071;28;20025;-85
2020/12/25 11:15:34;;;;;;;1.58;1.17;;;5.80;99.90;;;;;;5050309;28;20031;-79
2020/12/25 11:17:59;;;;;;;1.75;1.00;;;5.90;99.90;;;;;;5057543;28;20068;-79
2020/12/25 11:20:25;;;;;;;5.35;1.20;;;6.00;99.90;;;;;;5056913;28;20396;-79
2020/12/25 11:22:50;;;;;;;1.02;0.93;;;5.90;99.90;;;;;;5054245;28;20025;-77
2020/12/25 11:25:15;;;;;;;3.30;0.88;;;5.90;99.90;;;;;;5057706;28;20025;-83
2020/12/25 11:27:44;;;;;;;1.02;0.90;;;5.90;99.90;;;;;;5056088;28;20075;-81
2020/12/25 11:30:10;;;;;;;1.83;1.10;;;5.90;99.90;;;;;;5058503;28;20150;-88
2020/12/25 11:32:35;;;;;;;3.75;1.13;;;5.80;99.90;;;;;;5064401;28;20096;-87
2020/12/25 11:35:01;;;;;;;3.60;1.30;;;5.80;99.90;;;;;;5050545;28;20021;-82
2020/12/25 11:37:26;;;;;;;4.35;1.40;;;5.80;99.90;;;;;;5065116;28;20032;-83
2020/12/25 11:39:52;;;;;;;2.58;1.00;;;5.80;99.90;;;;;;5054008;28;20930;-80
2020/12/25 11:42:17;;;;;;;2.17;1.13;;;5.80;99.90;;;;;;5064561;28;20021;-87
2020/12/25 11:44:42;;;;;;;1.48;0.93;;;5.70;99.90;;;;;;5067421;28;20044;-80
2020/12/25 11:47:08;;;;;;;2.97;1.20;;;5.70;99.90;;;;;;5064965;28;20025;-80
2020/12/25 11:49:33;;;;;;;3.30;1.13;;;5.80;99.90;;;;;;5063440;28;20115;-82
2020/12/25 11:51:59;;;;;;;4.30;1.20;;;5.80;99.90;;;;;;5052715;28;20387;-78
2020/12/25 11:54:24;;;;;;;3.28;1.30;;;5.70;99.90;;;;;;5061506;28;20039;-82
2020/12/25 11:56:52;;;;;;;4.70;1.20;;;5.70;99.90;;;;;;5055105;28;20021;-82
2020/12/25 11:59:17;;;;;;;2.92;1.10;;;5.80;99.90;;;;;;5055708;28;20024;-76
2020/12/25 12:01:44;;;;;;;2.55;1.10;;;5.80;99.90;;;;;;5061918;28;20029;-80
2020/12/25 12:04:09;;;;;;;2.25;1.05;;;5.70;99.90;;;;;;5051331;28;20033;-78
2020/12/25 12:06:35;;;;;;;3.45;1.13;;;5.70;99.90;;;;;;5050082;28;20059;-79
2020/12/25 12:09:00;;;;;;;4.80;1.10;;;5.70;99.90;;;;;;5061891;28;20021;-79
2020/12/25 12:11:26;;;;;;;1.52;0.88;;;5.70;99.90;;;;;;5057537;28;20111;-80
2020/12/25 12:13:52;;;;;;;5.97;1.20;;;5.60;99.90;;;;;;5052267;28;20083;-81
2020/12/25 12:16:21;;;;;;;1.55;0.98;;;5.70;99.90;;;;;;5056985;28;20105;-81
2020/12/25 12:18:48;;;;;;;1.77;1.10;;;5.60;99.90;;;;;;5050306;28;20045;-79
2020/12/25 12:21:13;;;;;;;1.10;0.90;;;5.70;99.90;;;;;;5055530;28;20068;-86
2020/12/25 12:23:38;;;;;;;2.78;0.90;;;5.80;99.90;;;;;;5053535;28;20443;-80
2020/12/25 12:26:04;;;;;;;2.28;0.90;;;5.80;99.90;;;;;;5063740;28;20025;-79
2020/12/25 12:28:30;;;;;;;4.90;1.10;;;5.70;99.90;;;;;;5059967;28;20552;-80
2020/12/25 12:30:56;;;;;;;2.85;0.98;;;5.60;99.90;;;;;;5057207;28;20557;-79
2020/12/25 12:33:21;;;;;;;2.65;1.20;;;5.60;99.90;;;;;;5057691;28;20159;-79
2020/12/25 12:35:47;;;;;;;1.90;1.08;;;5.60;99.90;;;;;;5068455;28;20078;-78
2020/12/25 12:38:13;;;;;;;2.28;1.20;;;5.60;99.90;;;;;;5053822;28;20127;-77
2020/12/25 12:40:39;;;;;;;1.75;0.88;;;5.60;99.90;;;;;;5050038;28;20103;-78
2020/12/25 12:43:05;;;;;;;2.42;1.10;;;5.50;99.90;;;;;;5050107;28;20040;-78
2020/12/25 12:45:30;;;;;;;2.33;1.10;;;5.50;99.90;;;;;;5056384;28;20045;-78
2020/12/25 12:47:56;;;;;;;2.30;1.05;;;5.60;99.90;;;;;;5052951;28;20455;-78
2020/12/25 12:50:21;;;;;;;2.45;1.35;;;5.60;99.90;;;;;;5055152;28;20078;-79
2020/12/25 12:52:47;;;;;;;1.90;1.00;;;5.60;99.90;;;;;;5059431;28;20024;-80
2020/12/25 12:55:12;;;;;;;2.72;0.85;;;5.60;99.90;;;;;;5053339;28;20029;-76